createdAt,value
2019-02-14T00:00:02.925Z,-0.70
2019-02-14T00:05:01.992Z,-0.70
2019-02-14T00:09:59.771Z,-0.80
2019-02-14T00:14:56.875Z,-1.10
2019-02-14T00:19:57.182Z,-1.40
2019-02-14T00:24:55.821Z,-1.30
2019-02-14T00:29:57.777Z,-1.10
2019-02-14T00:35:08.770Z,-1.00
2019-02-14T00:40:23.142Z,-1.00
2019-02-14T00:45:32.184Z,-0.90
2019-02-14T00:50:39.295Z,-0.80
2019-02-14T00:55:41.168Z,-1.00
2019-02-14T01:00:39.469Z,-1.30
2019-02-14T01:05:38.183Z,-1.30
2019-02-14T01:10:34.230Z,-1.30
2019-02-14T01:15:35.393Z,-1.20
2019-02-14T01:20:43.611Z,-1.20
2019-02-14T01:25:36.946Z,-1.10
2019-02-14T01:30:48.162Z,-1.10
2019-02-14T01:35:59.011Z,-1.20
2019-02-14T01:41:02.781Z,-1.20
2019-02-14T01:46:02.750Z,-1.30
2019-02-14T01:51:04.445Z,-1.10
2019-02-14T01:56:16.345Z,-1.10
2019-02-14T02:01:27.376Z,-1.20
2019-02-14T02:06:34.528Z,-1.50
2019-02-14T02:11:36.373Z,-1.60
2019-02-14T02:16:45.483Z,-1.60
2019-02-14T02:21:49.277Z,-1.60
2019-02-14T02:26:53.844Z,-1.40
2019-02-14T02:32:02.329Z,-1.30
2019-02-14T02:44:03.093Z,-1.50
2019-02-14T02:49:07.217Z,-1.90
2019-02-14T02:54:14.257Z,-2.00
2019-02-14T02:59:14.308Z,-1.90
2019-02-14T03:04:17.983Z,-1.90
2019-02-14T03:09:19.507Z,-1.80
2019-02-14T03:14:23.102Z,-1.80
2019-02-14T03:19:29.694Z,-1.90
2019-02-14T03:24:37.180Z,-2.00
2019-02-14T03:29:41.373Z,-1.90
2019-02-14T03:34:49.099Z,-1.80
2019-02-14T03:40:06.679Z,-1.80
2019-02-14T03:45:20.225Z,-1.70
2019-02-14T03:50:21.870Z,-1.80
2019-02-14T03:55:24.074Z,-1.70
2019-02-14T04:00:32.448Z,-2.00
2019-02-14T04:05:43.948Z,-2.20
2019-02-14T04:16:08.582Z,-2.00
2019-02-14T04:21:16.172Z,-2.10
2019-02-14T04:26:28.686Z,-2.10
2019-02-14T04:32:04.465Z,-2.30
2019-02-14T04:37:17.880Z,-2.10
2019-02-14T04:42:25.114Z,-2.00
2019-02-14T04:47:53.099Z,-1.90
2019-02-14T04:53:15.882Z,-1.80
2019-02-14T05:03:56.902Z,-2.20
2019-02-14T05:09:13.559Z,-2.40
2019-02-14T05:14:32.644Z,-2.40
2019-02-14T05:19:53.621Z,-2.20
2019-02-14T05:30:52.959Z,-2.60
2019-02-14T05:36:00.078Z,-2.60
2019-02-14T05:41:11.902Z,-2.30
2019-02-14T05:46:18.116Z,-2.10
2019-02-14T05:51:30.752Z,-2.20
2019-02-14T05:56:42.384Z,-2.30
2019-02-14T06:02:21.533Z,-2.30
2019-02-14T06:07:28.195Z,-2.30
2019-02-14T06:12:38.224Z,-2.40
2019-02-14T06:17:55.920Z,-2.30
2019-02-14T06:23:22.477Z,-2.40
2019-02-14T06:34:46.471Z,-2.20
2019-02-14T06:39:42.370Z,-2.10
2019-02-14T06:44:47.217Z,-2.20
2019-02-14T06:49:50.696Z,-2.30
2019-02-14T06:54:56.792Z,-2.30
2019-02-14T07:00:23.117Z,-2.50
2019-02-14T07:05:26.304Z,-2.30
2019-02-14T07:10:39.956Z,-2.20
2019-02-14T07:15:49.289Z,-2.30
2019-02-14T07:20:53.950Z,-2.10
2019-02-14T07:26:04.166Z,-1.90
2019-02-14T07:31:20.259Z,-1.90
2019-02-14T07:36:25.394Z,-1.80
2019-02-14T07:41:29.330Z,-1.60
2019-02-14T07:46:59.808Z,-1.40
2019-02-14T07:52:06.387Z,-1.20
2019-02-14T07:57:11.173Z,-1.00
2019-02-14T08:02:29.507Z,-0.90
2019-02-14T08:07:23.478Z,-0.70
2019-02-14T08:55:12.525Z,1.20
2019-02-14T09:00:15.246Z,1.40
2019-02-14T09:05:16.809Z,1.60
2019-02-14T09:10:18.448Z,2.00
2019-02-14T09:15:20.418Z,2.30
2019-02-14T09:20:25.993Z,2.60
2019-02-14T09:25:25.411Z,2.90
2019-02-14T09:30:21.502Z,3.00
2019-02-14T09:35:17.431Z,3.00
2019-02-14T09:40:14.008Z,2.90
2019-02-14T09:45:11.397Z,3.00
2019-02-14T09:50:09.382Z,3.40
2019-02-14T09:55:05.759Z,3.50
2019-02-14T10:00:01.836Z,3.60
2019-02-14T10:04:58.211Z,3.70
2019-02-14T10:09:54.115Z,3.80
2019-02-14T10:14:50.281Z,3.90
2019-02-14T10:19:48.211Z,3.80
2019-02-14T10:24:44.124Z,3.80
2019-02-14T10:29:40.485Z,3.80
2019-02-14T10:34:36.535Z,3.80
2019-02-14T10:39:34.587Z,3.90
2019-02-14T10:44:30.537Z,4.00
2019-02-14T10:49:27.164Z,4.10
2019-02-14T10:54:23.034Z,4.10
2019-02-14T10:59:18.921Z,4.30
2019-02-14T11:04:14.839Z,4.40
2019-02-14T11:09:10.860Z,4.40
2019-02-14T11:14:07.237Z,4.50
2019-02-14T11:19:03.121Z,4.50
2019-02-14T11:23:59.200Z,4.70
2019-02-14T11:28:55.059Z,4.70
2019-02-14T11:33:50.910Z,4.80
2019-02-14T11:38:46.840Z,4.80
2019-02-14T11:43:42.772Z,4.70
2019-02-14T11:48:38.776Z,4.90
2019-02-14T11:53:34.809Z,5.00
2019-02-14T11:58:30.719Z,5.10
2019-02-14T12:03:27.788Z,5.30
2019-02-14T12:08:23.662Z,5.40
2019-02-14T12:13:19.661Z,5.50
2019-02-14T12:18:18.491Z,5.60
2019-02-14T12:23:16.460Z,5.60
2019-02-14T12:28:18.305Z,5.70
2019-02-14T12:33:16.443Z,5.70
2019-02-14T12:38:15.270Z,5.60
2019-02-14T12:43:11.123Z,5.60
2019-02-14T12:48:08.501Z,5.40
2019-02-14T12:53:04.763Z,5.40
2019-02-14T12:58:00.871Z,5.70
2019-02-14T13:02:56.695Z,5.80
2019-02-14T13:07:54.631Z,6.00
2019-02-14T13:12:53.363Z,6.10
2019-02-14T13:17:49.478Z,6.10
2019-02-14T13:22:45.425Z,6.20
2019-02-14T13:27:41.321Z,6.30
2019-02-14T13:32:37.556Z,6.70
2019-02-14T13:37:33.512Z,6.90
2019-02-14T13:42:29.685Z,7.10
2019-02-14T13:47:27.163Z,7.20
2019-02-14T13:52:23.184Z,7.40
2019-02-14T13:57:19.446Z,7.50
2019-02-14T14:02:15.373Z,7.60
2019-02-14T14:07:11.237Z,7.60
2019-02-14T14:12:07.341Z,7.50
2019-02-14T14:17:03.282Z,7.40
2019-02-14T14:21:59.263Z,7.30
2019-02-14T14:26:55.191Z,7.30
2019-02-14T14:31:51.253Z,7.40
2019-02-14T14:36:47.194Z,7.60
2019-02-14T14:41:43.003Z,7.70
2019-02-14T14:47:06.825Z,7.80
2019-02-14T14:52:02.851Z,7.80
2019-02-14T14:56:58.904Z,7.90
2019-02-14T15:01:54.909Z,7.80
2019-02-14T15:06:50.914Z,7.70
2019-02-14T15:11:46.752Z,7.70
2019-02-14T15:16:42.948Z,7.50
2019-02-14T15:21:38.880Z,7.10
2019-02-14T15:26:34.785Z,6.90
2019-02-14T15:31:32.055Z,6.70
2019-02-14T15:36:29.547Z,6.50
2019-02-14T15:41:25.299Z,6.30
2019-02-14T15:46:21.114Z,6.10
2019-02-14T15:51:18.322Z,5.90
2019-02-14T15:56:14.757Z,5.80
2019-02-14T16:01:13.743Z,5.60
2019-02-14T16:06:09.948Z,5.50
2019-02-14T16:11:10.171Z,5.30
2019-02-14T16:16:06.166Z,5.20
2019-02-14T16:21:03.642Z,5.20
2019-02-14T16:25:59.783Z,5.10
2019-02-14T16:30:56.901Z,4.90
2019-02-14T16:35:52.846Z,4.80
2019-02-14T16:40:53.059Z,4.60
2019-02-14T16:45:49.046Z,4.60
2019-02-14T16:50:44.936Z,4.50
2019-02-14T16:55:40.806Z,4.40
2019-02-14T17:00:36.882Z,4.40
2019-02-14T17:05:36.951Z,4.40
2019-02-14T17:10:37.065Z,4.20
2019-02-14T17:15:30.352Z,4.10
2019-02-14T17:20:26.281Z,4.00
2019-02-14T17:25:23.681Z,4.00
2019-02-14T17:35:50.941Z,3.70
2019-02-14T17:40:47.453Z,3.50
2019-02-14T17:50:57.168Z,3.20
2019-02-14T17:55:53.006Z,3.10
2019-02-14T18:00:48.903Z,3.10
2019-02-14T18:05:46.384Z,3.00
2019-02-14T18:10:42.490Z,3.00
2019-02-14T18:15:41.272Z,2.90
2019-02-14T18:21:04.100Z,2.80
2019-02-14T18:26:00.059Z,2.70
2019-02-14T18:30:56.024Z,2.60
2019-02-14T18:35:51.939Z,2.50
2019-02-14T18:40:48.578Z,2.30
2019-02-14T18:45:44.582Z,2.30
2019-02-14T18:50:40.705Z,2.20
2019-02-14T18:55:36.855Z,2.10
2019-02-14T19:00:33.035Z,2.10
2019-02-14T19:05:29.133Z,2.10
2019-02-14T19:10:25.254Z,2.10
2019-02-14T19:15:23.092Z,2.00
2019-02-14T19:20:19.011Z,1.80
2019-02-14T19:25:19.355Z,1.60
2019-02-14T19:30:16.139Z,1.50
2019-02-14T19:35:25.149Z,1.30
2019-02-14T19:40:21.233Z,1.40
2019-02-14T19:45:17.288Z,1.50
2019-02-14T19:50:16.613Z,1.40
2019-02-14T19:56:19.581Z,1.30
2019-02-14T20:01:12.890Z,1.40
2019-02-14T20:06:10.811Z,1.30
2019-02-14T20:11:09.854Z,1.20
2019-02-14T20:16:05.851Z,1.30
2019-02-14T20:21:02.958Z,1.40
2019-02-14T20:26:01.699Z,1.30
2019-02-14T20:31:00.291Z,1.20
2019-02-14T20:35:56.370Z,1.20
2019-02-14T20:40:54.435Z,1.10
2019-02-14T20:45:50.588Z,1.00
2019-02-14T20:50:48.201Z,0.90
2019-02-14T20:55:45.137Z,0.80
2019-02-14T21:00:41.296Z,0.70
2019-02-14T21:05:37.334Z,0.60
2019-02-14T21:10:36.551Z,0.60
2019-02-14T21:15:32.633Z,0.50
2019-02-14T21:20:28.756Z,0.40
2019-02-14T21:25:24.668Z,0.30
2019-02-14T21:30:26.845Z,0.40
2019-02-14T21:35:35.078Z,0.50
2019-02-14T21:40:53.251Z,0.60
2019-02-14T21:45:51.324Z,0.60
2019-02-14T21:50:53.481Z,0.70
2019-02-14T21:55:49.323Z,0.40
2019-02-14T22:00:45.492Z,0.30
2019-02-14T22:05:41.584Z,0.10
2019-02-14T22:10:37.783Z,0.10
2019-02-14T22:15:33.759Z,0.10
2019-02-14T22:20:29.663Z,0.10
2019-02-14T22:25:25.486Z,0.10
2019-02-14T22:30:21.627Z,0.10
2019-02-14T22:35:20.664Z,0.10
2019-02-14T22:40:16.799Z,-0.10
2019-02-14T22:45:15.918Z,-0.10
2019-02-14T22:50:14.857Z,0.00
2019-02-14T22:55:11.153Z,-0.10
2019-02-14T23:00:31.336Z,-0.10
2019-02-14T23:05:33.525Z,0.00
2019-02-14T23:10:39.116Z,0.00
2019-02-14T23:15:39.946Z,0.00
2019-02-14T23:20:47.930Z,-0.10
2019-02-14T23:25:50.870Z,-0.10
2019-02-14T23:30:51.300Z,-0.30
2019-02-14T23:35:51.276Z,-0.30
2019-02-14T23:40:50.352Z,-0.40
2019-02-14T23:45:50.723Z,-0.20
2019-02-14T23:50:51.831Z,-0.30
2019-02-14T23:55:47.854Z,-0.20
